Shinseimaru — JI3713 — position and weather

sailwx.info

Track history (hours):
 
Tides and Currents Weather Stations Pressure Air Temp Water Temp Dewpoint Dewpoint Depression Visibility Wind Speed Wind Dir Waves Ship Positions

Shinseimaru

Last reported at 2018-Jun-17 10:26 UTC. Time now 2018-Jun-18 13:00 UTC.
Position N 34°28' E 134°30'.

Length 84 m.

Type: Ship. MMSI: 431301705.

Date/timePositionNaut miles runAvg speedWind from/ knotsBaromVisibWave heightAir tempDewpointWater temp
2018-Jun-17 10:26N 34°28' E 134°30'511.9
2018-Jun-17 10:00N 34°29' E 134°35'24 9.8
2018-Jun-17 07:35N 34°36' E 135°03'1 6.9
2018-Jun-17 07:30N 34°36' E 135°04'510.5
2018-Jun-17 07:00N 34°36' E 135°10'611.6
2018-Jun-17 06:30N 34°36' E 135°17'611.4
2018-Jun-17 06:00N 34°36' E 135°24'1 0.1
2018-Jun-16 22:07N 34°36' E 135°25'1 9.1
2018-Jun-16 21:58N 34°36' E 135°24'611.1
2018-Jun-16 21:24N 34°35' E 135°16'511.4
2018-Jun-16 21:00N 34°35' E 135°11'2212.2
2018-Jun-16 19:12N 34°31' E 134°45'211.5
2018-Jun-16 19:00N 34°30' E 134°42'611.7
2018-Jun-16 18:29N 34°28' E 134°35'4 0.1
2018-Jun-15 11:13N 34°28' E 134°30'312.8
2018-Jun-15 11:01N 34°29' E 134°33'713.2
2018-Jun-15 10:29N 34°32' E 134°40'2312.8
2018-Jun-15 08:40N 34°36' E 135°08'211.9
2018-Jun-15 08:30N 34°36' E 135°10'611.9
2018-Jun-15 08:01N 34°36' E 135°17'611.6
2018-Jun-15 07:30N 34°36' E 135°25'0 0.0
2018-Jun-14 23:31N 34°36' E 135°25'010.4
2018-Jun-14 23:29N 34°36' E 135°24'510.8
2018-Jun-14 23:00N 34°36' E 135°18'711.1
2018-Jun-14 22:24N 34°34' E 135°10'510.9
2018-Jun-14 21:58N 34°35' E 135°04'17 9.9
2018-Jun-14 20:16N 34°31' E 134°44'311.5
2018-Jun-14 20:00N 34°30' E 134°41'711.7
2018-Jun-14 19:27N 34°28' E 134°34'3 0.1
2018-Jun-13 12:51N 34°28' E 134°30'1213.0
2018-Jun-13 11:56N 34°33' E 134°43'1315.1
2018-Jun-13 11:05N 34°37' E 134°58'615.4
2018-Jun-13 10:44N 34°36' E 135°04'311.9
2018-Jun-13 10:30N 34°36' E 135°07'612.2
2018-Jun-13 09:59N 34°36' E 135°15'712.1
2018-Jun-13 09:26N 34°36' E 135°23'0 0.0
2018-Jun-13 03:04N 34°36' E 135°24'1 0.3
2018-Jun-13 00:23N 34°36' E 135°23'410.3
2018-Jun-13 00:00N 34°35' E 135°18'610.7
2018-Jun-12 23:28N 34°35' E 135°11'511.5
2018-Jun-12 23:00N 34°35' E 135°05'17 8.7
2018-Jun-12 21:04N 34°31' E 134°45'210.7
2018-Jun-12 20:56N 34°31' E 134°43'510.9
2018-Jun-12 20:30N 34°29' E 134°38'7 0.2
2018-Jun-11 12:32N 34°28' E 134°29'112.0
2018-Jun-11 12:28N 34°28' E 134°30'1012.2
2018-Jun-11 11:41N 34°32' E 134°40'312.7
2018-Jun-11 11:29N 34°32' E 134°43'1813.1
2018-Jun-11 10:06N 34°36' E 135°05'313.3
2018-Jun-11 09:54N 34°36' E 135°08'512.8
2018-Jun-11 09:30N 34°36' E 135°14'612.1
2018-Jun-11 08:58N 34°36' E 135°22'3 0.4
2018-Jun-11 00:56N 34°35' E 135°26'2 1.5
2018-Jun-10 23:38N 34°36' E 135°23'0 0.1
2018-Jun-10 23:23N 34°36' E 135°23'3 6.8
2018-Jun-10 22:58N 34°36' E 135°20'510.7
2018-Jun-10 22:30N 34°35' E 135°14'510.4
2018-Jun-10 22:00N 34°35' E 135°08'19 8.7
2018-Jun-10 19:46N 34°32' E 134°44'310.7
2018-Jun-10 19:28N 34°30' E 134°41'510.9
2018-Jun-10 18:59N 34°28' E 134°35'7 0.2
2018-Jun-09 11:22N 34°27' E 134°27'412.1
2018-Jun-09 11:00N 34°28' E 134°32'712.6
2018-Jun-09 10:27N 34°31' E 134°40'813.0
2018-Jun-09 09:52N 34°34' E 134°48'813.7
2018-Jun-09 09:15N 34°37' E 134°58'512.3
2018-Jun-09 08:50N 34°36' E 135°04'411.7
2018-Jun-09 08:29N 34°36' E 135°09'612.4
2018-Jun-09 08:00N 34°36' E 135°16'611.9
2018-Jun-09 07:29N 34°36' E 135°23'1 0.2
2018-Jun-09 00:07N 34°36' E 135°25'1 8.9
2018-Jun-08 23:58N 34°36' E 135°24'510.9
2018-Jun-08 23:30N 34°36' E 135°17'610.9
2018-Jun-08 22:55N 34°35' E 135°10'511.2
2018-Jun-08 22:30N 34°35' E 135°04'1710.1
2018-Jun-08 20:51N 34°31' E 134°44'410.9
2018-Jun-08 20:29N 34°30' E 134°40'510.9
2018-Jun-08 19:59N 34°28' E 134°34'4 0.1
2018-Jun-07 13:28N 34°28' E 134°29'1012.1
2018-Jun-07 12:37N 34°31' E 134°41'312.0
2018-Jun-07 12:25N 34°32' E 134°44'1810.4
2018-Jun-07 10:40N 34°36' E 135°05'211.1
2018-Jun-07 10:29N 34°36' E 135°08'  
Track history (hours):
 
Tides and Currents Weather Stations Pressure Air Temp Water Temp Dewpoint Dewpoint Depression Visibility Wind Speed Wind Dir Waves Ship Positions

Shinseimaru

Last reported at 2018-Jun-17 10:26 UTC. Time now 2018-Jun-18 13:00 UTC.
Position N 34°28' E 134°30'.

Length 84 m.

Type: Ship. MMSI: 431301705.

Date/timePositionNaut miles runAvg speedWind from/ knotsBaromVisibWave heightAir tempDewpointWater temp
2018-Jun-17 10:26N 34°28' E 134°30'511.9
2018-Jun-17 10:00N 34°29' E 134°35'24 9.8
2018-Jun-17 07:35N 34°36' E 135°03'1 6.9
2018-Jun-17 07:30N 34°36' E 135°04'510.5
2018-Jun-17 07:00N 34°36' E 135°10'611.6
2018-Jun-17 06:30N 34°36' E 135°17'611.4
2018-Jun-17 06:00N 34°36' E 135°24'1 0.1
2018-Jun-16 22:07N 34°36' E 135°25'1 9.1
2018-Jun-16 21:58N 34°36' E 135°24'611.1
2018-Jun-16 21:24N 34°35' E 135°16'511.4
2018-Jun-16 21:00N 34°35' E 135°11'2212.2
2018-Jun-16 19:12N 34°31' E 134°45'211.5
2018-Jun-16 19:00N 34°30' E 134°42'611.7
2018-Jun-16 18:29N 34°28' E 134°35'4 0.1
2018-Jun-15 11:13N 34°28' E 134°30'312.8
2018-Jun-15 11:01N 34°29' E 134°33'713.2
2018-Jun-15 10:29N 34°32' E 134°40'2312.8
2018-Jun-15 08:40N 34°36' E 135°08'211.9
2018-Jun-15 08:30N 34°36' E 135°10'611.9
2018-Jun-15 08:01N 34°36' E 135°17'611.6
2018-Jun-15 07:30N 34°36' E 135°25'0 0.0
2018-Jun-14 23:31N 34°36' E 135°25'010.4
2018-Jun-14 23:29N 34°36' E 135°24'510.8
2018-Jun-14 23:00N 34°36' E 135°18'711.1
2018-Jun-14 22:24N 34°34' E 135°10'510.9
2018-Jun-14 21:58N 34°35' E 135°04'17 9.9
2018-Jun-14 20:16N 34°31' E 134°44'311.5
2018-Jun-14 20:00N 34°30' E 134°41'711.7
2018-Jun-14 19:27N 34°28' E 134°34'3 0.1
2018-Jun-13 12:51N 34°28' E 134°30'1213.0
2018-Jun-13 11:56N 34°33' E 134°43'1315.1
2018-Jun-13 11:05N 34°37' E 134°58'615.4
2018-Jun-13 10:44N 34°36' E 135°04'311.9
2018-Jun-13 10:30N 34°36' E 135°07'612.2
2018-Jun-13 09:59N 34°36' E 135°15'712.1
2018-Jun-13 09:26N 34°36' E 135°23'0 0.0
2018-Jun-13 03:04N 34°36' E 135°24'1 0.3
2018-Jun-13 00:23N 34°36' E 135°23'410.3
2018-Jun-13 00:00N 34°35' E 135°18'610.7
2018-Jun-12 23:28N 34°35' E 135°11'511.5
2018-Jun-12 23:00N 34°35' E 135°05'17 8.7
2018-Jun-12 21:04N 34°31' E 134°45'210.7
2018-Jun-12 20:56N 34°31' E 134°43'510.9
2018-Jun-12 20:30N 34°29' E 134°38'7 0.2
2018-Jun-11 12:32N 34°28' E 134°29'112.0
2018-Jun-11 12:28N 34°28' E 134°30'1012.2
2018-Jun-11 11:41N 34°32' E 134°40'312.7
2018-Jun-11 11:29N 34°32' E 134°43'1813.1
2018-Jun-11 10:06N 34°36' E 135°05'313.3
2018-Jun-11 09:54N 34°36' E 135°08'512.8
2018-Jun-11 09:30N 34°36' E 135°14'612.1
2018-Jun-11 08:58N 34°36' E 135°22'3 0.4
2018-Jun-11 00:56N 34°35' E 135°26'2 1.5
2018-Jun-10 23:38N 34°36' E 135°23'0 0.1
2018-Jun-10 23:23N 34°36' E 135°23'3 6.8
2018-Jun-10 22:58N 34°36' E 135°20'510.7
2018-Jun-10 22:30N 34°35' E 135°14'510.4
2018-Jun-10 22:00N 34°35' E 135°08'19 8.7
2018-Jun-10 19:46N 34°32' E 134°44'310.7
2018-Jun-10 19:28N 34°30' E 134°41'510.9
2018-Jun-10 18:59N 34°28' E 134°35'7 0.2
2018-Jun-09 11:22N 34°27' E 134°27'412.1
2018-Jun-09 11:00N 34°28' E 134°32'712.6
2018-Jun-09 10:27N 34°31' E 134°40'813.0
2018-Jun-09 09:52N 34°34' E 134°48'813.7
2018-Jun-09 09:15N 34°37' E 134°58'512.3
2018-Jun-09 08:50N 34°36' E 135°04'411.7
2018-Jun-09 08:29N 34°36' E 135°09'612.4
2018-Jun-09 08:00N 34°36' E 135°16'611.9
2018-Jun-09 07:29N 34°36' E 135°23'1 0.2
2018-Jun-09 00:07N 34°36' E 135°25'1 8.9
2018-Jun-08 23:58N 34°36' E 135°24'510.9
2018-Jun-08 23:30N 34°36' E 135°17'610.9
2018-Jun-08 22:55N 34°35' E 135°10'511.2
2018-Jun-08 22:30N 34°35' E 135°04'1710.1
2018-Jun-08 20:51N 34°31' E 134°44'410.9
2018-Jun-08 20:29N 34°30' E 134°40'510.9
2018-Jun-08 19:59N 34°28' E 134°34'4 0.1
2018-Jun-07 13:28N 34°28' E 134°29'1012.1
2018-Jun-07 12:37N 34°31' E 134°41'312.0
2018-Jun-07 12:25N 34°32' E 134°44'1810.4
2018-Jun-07 10:40N 34°36' E 135°05'211.1
2018-Jun-07 10:29N 34°36' E 135°08'  

Dump ship's entire track history